Logo AVAMET
Benvolgut visitant, si us plau, ingressa Recuperar contrasenya

Inforatge Piles

Dades diàries. Acumulats / Últims 30 dies disponibles

Data Temperatura (°C) Humitat rel. (%) Pressió rel. (hPa) Vent (km/h) Precipitació
Mínima Mitjana Màxima Amplitud
tèrmica
Mínima Mitjana Màxima Mínima Mitjana Màxima Predom. Mitjana Ràfega
màxima
Total
(mm)
Índex-n
Mínima Mitjana Màxima Mínima Mitjana Màxima n
0 a 1
P0 max
mm 5'
Dades mensuals acumulades fins l'últim dia disponible
10/2019 17,7 19,2 21,2 22,6 24,6 26,3 30,9 13,2 29 75 92 1.012 1.020 1.027   6,5 41,8 0,0
Dades anuals acumulades fins l'últim dia disponible
2019 3,3 16,0 26,9 19,6 10,7 23,6 38,2 34,9 15 70 99 997 1.021 1.039   8,6 85,4 333,2
Últims 30 dies disponibles
13-10-2019 19,5     22,3     24,6 5,1 78 86 91 1.020 1.021 1.022 SSE 6,4 19,3 0,0
12-10-2019 19,8     22,3     24,7 4,9 80 84 88 1.021 1.022 1.024 WSW 4,5 17,7 0,0
11-10-2019 19,0     21,9     24,8 5,8 74 84 91 1.023 1.025 1.027 WSW 7,7 41,8 0,0
10-10-2019 20,4     22,1     25,4 5,0 72 85 89 1.023 1.025 1.026 WSW 3,9 25,7 0,0
09-10-2019 18,1     22,6     25,4 7,3 68 78 87 1.019 1.020 1.023 SSE 4,3 22,6 0,0
08-10-2019 17,7     22,1     27,8 10,1 61 75 84 1.020 1.022 1.024 S 5,6 24,1 0,0
07-10-2019 19,7     22,3     26,7 7,0 53 76 91 1.019 1.020 1.023 S 6,9 32,2 0,0
06-10-2019 19,1     21,9     24,7 5,6 75 86 90 1.019 1.021 1.023 S 7,4 25,9 0,0
05-10-2019 18,3     22,2     26,1 7,8 57 78 91 1.018 1.019 1.021 S 6,6 25,9 0,0
04-10-2019 18,7     23,0     27,9 9,2 36 62 79 1.017 1.019 1.022 SSO 7,8 32,2 0,0
03-10-2019 18,2     21,6     24,9 6,7 41 62 76 1.018 1.020 1.022 SSO 8,1 31,5 0,0
02-10-2019 21,2     24,5     27,8 6,6 29 49 69 1.014 1.017 1.020 S 9,4 33,9 0,0
01-10-2019 20,4     25,4     30,9 10,5 31 68 92 1.012 1.015 1.019 S 5,8 24,1 0,0
30-09-2019 20,2     23,5     26,1 5,9 67 84 93 1.018 1.020 1.022 S 3,6 22,6 0,0
29-09-2019 20,4     24,8     30,2 9,8 49 75 92 1.018 1.021 1.023 S 5,8 19,3 0,0
28-09-2019 20,4     23,4     26,6 6,2 75 85 92 1.022 1.023 1.025 SSO 4,7 25,9 0,0
27-09-2019 20,8     24,8     30,3 9,5 59 74 88 1.019 1.021 1.022 S 5,7 27,8 0,0
26-09-2019 21,2     23,8     28,0 6,8 71 83 89 1.020 1.022 1.024 S 5,9 25,9 0,0
25-09-2019 22,8     25,1     29,3 6,5 42 66 89 1.017 1.019 1.022 S 10,7 33,9 0,0
24-09-2019 20,6     26,6     33,7 13,1 31 53 80 1.017 1.020 1.023 SO 7,6 29,6 0,0
23-09-2019 20,8     23,3     26,9 6,1 50 68 84 1.020 1.022 1.024 S 8,2 31,5 0,0
22-09-2019 21,8     25,6     29,0 7,2 60 77 94 1.015 1.016 1.019 SSO 6,8 29,6 0,0
21-09-2019 21,7     23,8     25,7 4,0 81 88 94 1.015 1.017 1.019 SSE 4,4 24,1 4,0 0,42 1,20
20-09-2019 21,2     23,3     25,5 4,3 83 88 92 1.019 1.021 1.022 SSE 7,7 25,9 0,2
19-09-2019 20,3     23,2     26,0 5,7 71 83 89 1.020 1.021 1.022 SSE 5,9 20,9 0,0
18-09-2019 20,8     24,3     28,5 7,7 59 80 94 1.018 1.019 1.020 S 6,4 27,8 0,0
17-09-2019 21,0     23,4     25,9 4,9 79 86 92 1.018 1.020 1.022 S 6,2 24,1 0,0
16-09-2019 22,0     23,9     25,6 3,6 81 90 97 1.021 1.022 1.024 ESE 8,2 25,9 0,0
15-09-2019 23,3     23,9     25,1 1,8 89 92 96 1.022 1.023 1.026 SE 15,5 40,7 0,0
14-09-2019 18,2     22,0     24,3 6,1 76 85 93 1.025 1.027 1.029 S 9,9 33,9 3,2 0,50 0,80
Últims 13 mesos disponibles
09/2019 14,9 20,9 23,4 24,0 23,2 27,4 34,9 20,0 50 78 92 1.014 1.021 1.027 S 8,7 85,4 72,4
08/2019 18,9 23,3 26,9 26,6 26,6 30,6 38,2 19,3 59 75 85 1.014 1.019 1.024 SSE 8,6 55,6 18,0
07/2019 21,9 23,5 26,2 26,7 26,6 30,3 37,8 15,9 44 74 85 1.009 1.017 1.025 SSE 9,0 51,9 0,2
06/2019 14,2 18,6 22,4 22,6 20,2 26,8 33,0 18,8 41 71 87 1.012 1.019 1.025 SSE 9,0 48,3 0,0
05/2019 10,9 15,4 21,9 19,1 17,7 23,6 31,2 20,3 50 71 84 1.009 1.019 1.028 SSE 8,6 51,9 7,0
04/2019 8,7 12,4 15,3 15,8 14,8 19,6 28,2 19,5 42 70 94 1.003 1.016 1.029 S 10,0 69,3 191,8
03/2019 8,1 10,4 15,0 14,8 11,8 19,1 28,4 20,3 32 64 92 1.015 1.026 1.033 S 7,7 46,7 41,8
02/2019 5,8 8,8 11,9 12,7 12,9 16,8 22,4 16,6 35 65 83 999 1.028 1.037 SSO 7,9 75,9 0,0
01/2019 3,3 8,6 13,8 12,2 10,7 16,5 21,1 17,8 42 58 77 1.006 1.022 1.034 SSO 8,7 64,8 2,0
12/2018 7,2 10,4 14,7 14,0 14,4 18,3 24,4 17,2 53 69 88 1.012 1.028 1.034 SSO 7,1 48,3 22,8
11/2018 9,1 12,5 16,2 15,4 16,2 18,8 22,3 13,2 50 72 94 1.004 1.019 1.027 SO 6,9 69,3 214,6
10/2018 8,8 16,1 21,1 19,1 15,3 22,7 29,3 20,5 45 74 89 1.003 1.018 1.029 S 7,1 53,7 154,8
09/2018 17,2 21,2 24,7 24,2 24,4 27,6 31,6 14,4 63 80 89 1.016 1.022 1.031 7,0 70,9 104,4
Tots els anys disponibles
Temperatura (°C)
Humitat relativa (%)
Velocitat del vent i ràfega màxima (km/h)
Direcció del vent (°)
Pressió (hPa)
Precipitació (mm)
Nota sobre les dades: s'avisa a l'usuari de la provisionalitat i no oficialitat d'aquestes dades
Logo AVAMET blanc
Web allotjada a Sollutia
Llicència de Creative CommonsLa web d'AVAMET i els seus continguts estan subjectes a una llicència de
Reconeixement - No Comercial - Compartir igual
Properes estacions: Altea - Club Nàutic d'Altea (Soci),    - - - - -      Últimes estacions: Castielfabib (Soci), Sant Mateu (Soci), Vallada (Soci), Agullent (Soci), Llíria - Bodegas del Campo (Soci), La Pobla Tornesa (Soci) - - -